createdAt,value
2022-08-17T00:00:57.581Z,14.02
2022-08-17T00:03:36.013Z,12.82
2022-08-17T00:06:08.545Z,11.98
2022-08-17T00:08:46.110Z,8.70
2022-08-17T00:11:16.475Z,10.77
2022-08-17T00:13:50.324Z,11.25
2022-08-17T00:16:55.828Z,10.95
2022-08-17T00:19:14.259Z,9.32
2022-08-17T00:22:31.003Z,12.40
2022-08-17T00:24:33.086Z,10.48
2022-08-17T00:27:00.029Z,9.75
2022-08-17T00:29:26.962Z,13.15
2022-08-17T00:31:54.776Z,11.40
2022-08-17T00:34:22.694Z,11.10
2022-08-17T00:36:49.853Z,12.57
2022-08-17T00:39:16.691Z,11.68
2022-08-17T00:41:43.592Z,11.85
2022-08-17T00:44:12.217Z,15.15
2022-08-17T00:46:44.521Z,15.38
2022-08-17T00:49:14.207Z,14.55
2022-08-17T00:51:56.049Z,12.70
2022-08-17T00:54:33.975Z,12.35
2022-08-17T00:57:16.363Z,11.25
2022-08-17T01:00:03.196Z,16.55
2022-08-17T01:02:41.736Z,12.88
2022-08-17T01:05:18.468Z,12.27
2022-08-17T01:07:47.862Z,18.65
2022-08-17T01:10:59.966Z,17.02
2022-08-17T01:13:05.766Z,9.35
2022-08-17T01:15:36.929Z,10.52
2022-08-17T01:18:08.814Z,13.80
2022-08-17T01:20:51.230Z,12.70
2022-08-17T01:23:21.344Z,17.73
2022-08-17T01:25:51.101Z,12.40
2022-08-17T01:28:53.009Z,14.68
2022-08-17T01:31:09.099Z,11.13
2022-08-17T01:33:36.451Z,13.48
2022-08-17T01:36:04.970Z,13.43
2022-08-17T01:38:32.141Z,11.00
2022-08-17T01:41:03.049Z,15.10
2022-08-17T01:44:04.204Z,13.73
2022-08-17T01:46:35.706Z,14.55
2022-08-17T01:49:07.651Z,11.87
2022-08-17T01:51:34.767Z,12.73
2022-08-17T01:54:11.375Z,11.63
2022-08-17T01:56:44.141Z,14.80
2022-08-17T01:59:16.562Z,10.98
2022-08-17T02:01:46.569Z,9.52
2022-08-17T02:04:14.602Z,10.70
2022-08-17T02:06:52.959Z,18.33
2022-08-17T02:09:29.667Z,16.20
2022-08-17T02:11:59.707Z,11.10
2022-08-17T02:14:26.955Z,12.50
2022-08-17T02:16:54.195Z,10.75
2022-08-17T02:19:21.974Z,12.93
2022-08-17T02:21:51.424Z,10.15
2022-08-17T02:24:59.360Z,10.40
2022-08-17T02:27:13.759Z,13.93
2022-08-17T02:29:40.698Z,15.40
2022-08-17T02:32:20.992Z,10.95
2022-08-17T02:35:00.373Z,11.05
2022-08-17T02:37:29.751Z,14.43
2022-08-17T02:39:58.543Z,10.77
2022-08-17T02:42:35.093Z,9.90
2022-08-17T02:45:06.810Z,10.90
2022-08-17T02:47:34.791Z,14.17
2022-08-17T02:50:21.399Z,12.73
2022-08-17T02:53:01.655Z,14.00
2022-08-17T02:55:32.768Z,19.27
2022-08-17T02:57:59.947Z,16.45
2022-08-17T03:00:30.804Z,15.18
2022-08-17T03:02:58.109Z,18.38
2022-08-17T03:05:28.698Z,18.48
2022-08-17T03:07:58.169Z,18.52
2022-08-17T03:10:25.794Z,19.92
2022-08-17T03:12:53.659Z,15.38
2022-08-17T03:15:25.000Z,18.20
2022-08-17T03:17:53.380Z,16.48
2022-08-17T03:20:21.460Z,15.10
2022-08-17T03:22:53.125Z,17.98
2022-08-17T03:25:27.349Z,19.77
2022-08-17T03:27:56.758Z,16.05
2022-08-17T03:30:25.170Z,14.80
2022-08-17T03:32:56.143Z,15.70
2022-08-17T03:35:26.305Z,17.15
2022-08-17T03:38:00.399Z,17.13
2022-08-17T03:40:34.430Z,17.63
2022-08-17T03:43:16.433Z,15.95
2022-08-17T03:46:02.828Z,17.00
2022-08-17T03:48:48.714Z,16.17
2022-08-17T03:51:41.869Z,17.38
2022-08-17T03:54:28.542Z,13.35
2022-08-17T03:57:07.403Z,15.98
2022-08-17T03:59:35.482Z,15.13
2022-08-17T04:02:11.412Z,11.75
2022-08-17T04:04:39.210Z,14.82
2022-08-17T04:07:06.933Z,12.05
2022-08-17T04:09:33.988Z,12.98
2022-08-17T04:12:04.784Z,14.27
2022-08-17T04:14:52.312Z,12.57
2022-08-17T04:17:23.308Z,12.35
2022-08-17T04:19:50.290Z,13.13
2022-08-17T04:22:31.965Z,12.82
2022-08-17T04:25:16.347Z,15.13
2022-08-17T04:27:43.413Z,14.15
2022-08-17T04:30:10.895Z,19.45
2022-08-17T04:33:14.641Z,13.63
2022-08-17T04:35:47.510Z,14.30
2022-08-17T04:38:17.959Z,21.63
2022-08-17T04:41:03.807Z,16.85
2022-08-17T04:43:32.567Z,12.68
2022-08-17T04:46:05.759Z,13.02
2022-08-17T04:48:44.125Z,13.13
2022-08-17T04:51:18.968Z,12.10
2022-08-17T04:53:54.281Z,16.13
2022-08-17T04:56:25.042Z,14.90
2022-08-17T04:58:55.896Z,12.77
2022-08-17T05:01:24.811Z,15.00
2022-08-17T05:03:59.177Z,13.95
2022-08-17T05:06:30.117Z,15.20
2022-08-17T05:09:01.138Z,12.40
2022-08-17T05:11:29.885Z,14.23
2022-08-17T05:13:59.104Z,16.75
2022-08-17T05:16:28.604Z,15.23
2022-08-17T05:18:56.788Z,16.25
2022-08-17T05:21:24.260Z,15.25
2022-08-17T05:23:56.169Z,16.95
2022-08-17T05:26:27.337Z,13.75
2022-08-17T05:28:59.431Z,14.40
2022-08-17T05:31:27.894Z,17.02
2022-08-17T05:33:54.849Z,17.52
2022-08-17T05:36:41.985Z,16.38
2022-08-17T05:39:15.896Z,15.35
2022-08-17T05:41:45.599Z,14.77
2022-08-17T05:44:13.763Z,14.32
2022-08-17T05:46:42.542Z,16.48
2022-08-17T05:49:11.158Z,15.02
2022-08-17T05:51:39.098Z,15.73
2022-08-17T05:54:05.962Z,20.45
2022-08-17T05:56:55.105Z,16.30
2022-08-17T05:59:57.382Z,17.63
2022-08-17T06:02:58.731Z,18.33
2022-08-17T06:05:26.719Z,19.38
2022-08-17T06:08:17.625Z,17.67
2022-08-17T06:11:02.941Z,23.40
2022-08-17T06:13:51.736Z,22.25
2022-08-17T06:16:33.611Z,28.00
2022-08-17T06:19:35.768Z,26.88
2022-08-17T06:22:05.759Z,19.73
2022-08-17T06:24:57.251Z,25.00
2022-08-17T06:27:30.403Z,27.92
2022-08-17T06:30:08.115Z,23.02
2022-08-17T06:32:40.399Z,25.70
2022-08-17T06:35:10.201Z,25.92
2022-08-17T06:37:49.718Z,28.08
2022-08-17T06:40:48.951Z,34.97
2022-08-17T06:43:28.837Z,33.63
2022-08-17T06:46:13.052Z,38.38
2022-08-17T06:48:46.832Z,35.45
2022-08-17T06:51:25.959Z,41.53
2022-08-17T06:53:59.687Z,36.92
2022-08-17T06:56:53.902Z,38.92
2022-08-17T06:59:47.122Z,35.13
2022-08-17T07:02:52.396Z,30.98
2022-08-17T07:05:25.472Z,39.55
2022-08-17T07:08:05.021Z,31.13
2022-08-17T07:10:42.703Z,38.40
2022-08-17T07:13:31.097Z,35.38
2022-08-17T07:16:11.179Z,38.78
2022-08-17T07:18:38.170Z,37.70
2022-08-17T07:21:32.481Z,34.60
2022-08-17T07:24:30.254Z,35.58
2022-08-17T07:27:21.317Z,37.45
2022-08-17T07:29:52.930Z,44.75
2022-08-17T07:32:31.790Z,35.30
2022-08-17T07:35:07.477Z,42.80
2022-08-17T07:37:41.759Z,40.90
2022-08-17T07:40:28.373Z,38.95
2022-08-17T07:43:23.390Z,39.63
2022-08-17T07:46:36.992Z,46.28
2022-08-17T07:49:03.763Z,48.63
2022-08-17T07:51:33.988Z,45.10
2022-08-17T07:54:14.611Z,48.97
2022-08-17T07:57:06.881Z,51.60
2022-08-17T07:59:36.837Z,37.30
2022-08-17T08:02:31.112Z,31.92
2022-08-17T08:05:13.022Z,33.60
2022-08-17T08:07:51.366Z,30.95
2022-08-17T08:10:32.952Z,39.05
2022-08-17T08:13:08.651Z,38.17
2022-08-17T08:15:45.222Z,37.58
2022-08-17T08:18:54.582Z,42.00
2022-08-17T08:21:30.290Z,43.78
2022-08-17T08:24:31.277Z,39.72
2022-08-17T08:27:07.155Z,42.70
2022-08-17T08:30:10.912Z,35.45
2022-08-17T08:33:14.671Z,47.53
2022-08-17T08:35:53.653Z,42.88
2022-08-17T08:38:47.324Z,27.45
2022-08-17T08:41:29.778Z,30.15
2022-08-17T08:44:19.888Z,34.72
2022-08-17T08:47:35.500Z,32.72
2022-08-17T08:50:48.177Z,29.48
2022-08-17T08:53:30.062Z,28.35
2022-08-17T08:56:06.504Z,31.88
2022-08-17T08:58:56.179Z,23.77
2022-08-17T09:01:36.786Z,27.77
2022-08-17T09:04:56.142Z,29.33
2022-08-17T09:07:57.373Z,19.15
2022-08-17T09:11:05.049Z,18.92
2022-08-17T09:13:54.302Z,22.77
2022-08-17T09:16:30.366Z,20.15
2022-08-17T09:19:04.974Z,22.10
2022-08-17T09:21:54.298Z,23.80
2022-08-17T09:24:41.750Z,23.67
2022-08-17T09:27:14.724Z,24.13
2022-08-17T09:29:49.955Z,23.58
2022-08-17T09:32:31.389Z,26.00
2022-08-17T09:35:03.613Z,25.52
2022-08-17T09:37:48.003Z,22.42
2022-08-17T09:40:30.466Z,23.90
2022-08-17T09:43:08.618Z,27.73
2022-08-17T09:45:54.054Z,25.65
2022-08-17T09:49:09.872Z,27.00
2022-08-17T09:51:43.805Z,25.73
2022-08-17T09:54:38.539Z,22.27
2022-08-17T09:57:28.760Z,24.58
2022-08-17T10:00:10.901Z,24.15
2022-08-17T10:02:58.681Z,25.77
2022-08-17T10:05:55.018Z,26.00
2022-08-17T10:08:27.772Z,27.08
2022-08-17T10:10:56.859Z,26.70
2022-08-17T10:13:59.650Z,25.98
2022-08-17T10:19:20.934Z,22.02
2022-08-17T10:22:34.701Z,22.52
2022-08-17T10:25:24.818Z,22.75
2022-08-17T10:28:01.433Z,22.95
2022-08-17T10:30:32.597Z,16.02
2022-08-17T10:33:13.501Z,16.02
2022-08-17T10:35:43.975Z,16.17
2022-08-17T10:38:19.752Z,15.40
2022-08-17T10:41:17.621Z,13.63
2022-08-17T10:44:39.054Z,16.83
2022-08-17T10:46:56.272Z,16.30
2022-08-17T10:49:29.406Z,16.38
2022-08-17T10:51:59.039Z,19.90
2022-08-17T10:54:37.136Z,19.38
2022-08-17T10:57:44.918Z,20.13
2022-08-17T11:00:28.539Z,19.50
2022-08-17T11:02:57.535Z,18.23
2022-08-17T11:06:04.307Z,19.83
2022-08-17T11:09:08.199Z,20.52
2022-08-17T11:11:56.776Z,21.52
2022-08-17T11:14:51.544Z,22.50
2022-08-17T11:18:02.193Z,24.40
2022-08-17T11:20:44.101Z,18.23
2022-08-17T11:23:35.140Z,19.85
2022-08-17T11:26:04.131Z,19.33
2022-08-17T11:28:35.880Z,22.30
2022-08-17T11:31:38.280Z,20.50
2022-08-17T11:34:26.443Z,18.88
2022-08-17T11:37:19.438Z,17.73
2022-08-17T11:40:20.735Z,14.35
2022-08-17T11:43:25.413Z,17.55
2022-08-17T11:46:24.777Z,15.25
2022-08-17T11:49:30.097Z,13.00
2022-08-17T11:52:35.884Z,13.27
2022-08-17T11:55:33.510Z,12.10
2022-08-17T11:58:01.096Z,12.73
2022-08-17T12:00:46.478Z,12.48
2022-08-17T12:03:22.568Z,11.88
2022-08-17T12:05:53.493Z,11.55
2022-08-17T12:08:22.414Z,13.38
2022-08-17T12:11:05.273Z,11.95
2022-08-17T12:13:42.915Z,12.57
2022-08-17T12:16:15.022Z,11.93
2022-08-17T12:18:52.325Z,14.50
2022-08-17T12:21:37.633Z,12.35
2022-08-17T12:24:22.918Z,13.35
2022-08-17T12:26:57.229Z,12.23
2022-08-17T12:29:35.418Z,13.25
2022-08-17T12:32:12.947Z,11.57
2022-08-17T12:34:42.641Z,12.88
2022-08-17T12:37:20.747Z,12.55
2022-08-17T12:39:54.619Z,13.10
2022-08-17T12:42:29.371Z,12.35
2022-08-17T12:44:59.531Z,13.43
2022-08-17T12:47:30.025Z,13.13
2022-08-17T12:50:28.223Z,13.00
2022-08-17T12:53:01.770Z,13.77
2022-08-17T12:58:02.099Z,14.27
2022-08-17T13:00:41.181Z,12.82
2022-08-17T13:03:18.071Z,13.60
2022-08-17T13:06:09.002Z,14.10
2022-08-17T13:08:41.177Z,13.95
2022-08-17T13:11:16.176Z,13.95
2022-08-17T13:13:50.916Z,13.18
2022-08-17T13:16:24.263Z,13.60
2022-08-17T13:18:55.627Z,13.43
2022-08-17T13:21:30.559Z,13.32
2022-08-17T13:24:07.986Z,13.73
2022-08-17T13:26:38.847Z,14.63
2022-08-17T13:29:16.518Z,14.18
2022-08-17T13:31:56.271Z,13.80
2022-08-17T13:34:26.961Z,12.75
2022-08-17T13:37:29.878Z,13.98
2022-08-17T13:42:48.033Z,13.40
2022-08-17T13:45:34.913Z,13.27
2022-08-17T13:48:11.112Z,14.20
2022-08-17T13:51:02.780Z,12.88
2022-08-17T13:53:51.176Z,12.65
2022-08-17T13:56:45.397Z,11.50
2022-08-17T13:59:53.078Z,12.20
2022-08-17T14:02:14.497Z,10.52
2022-08-17T14:04:43.157Z,12.73
2022-08-17T14:07:13.044Z,11.35
2022-08-17T14:09:41.047Z,13.60
2022-08-17T14:12:15.373Z,12.00
2022-08-17T14:14:44.925Z,10.40
2022-08-17T14:17:12.789Z,11.38
2022-08-17T14:19:40.908Z,10.48
2022-08-17T14:22:14.955Z,12.00
2022-08-17T14:24:44.865Z,12.07
2022-08-17T14:27:12.383Z,14.98
2022-08-17T14:29:41.161Z,14.48
2022-08-17T14:32:18.939Z,17.13
2022-08-17T14:34:49.590Z,16.92
2022-08-17T14:37:17.749Z,16.20
2022-08-17T14:39:44.753Z,16.58
2022-08-17T14:42:12.250Z,16.45
2022-08-17T14:44:39.876Z,16.77
2022-08-17T14:47:11.183Z,17.15
2022-08-17T14:49:38.279Z,18.97
2022-08-17T14:52:07.926Z,15.80
2022-08-17T14:54:34.847Z,14.15
2022-08-17T14:57:26.123Z,14.73
2022-08-17T14:59:56.630Z,15.88
2022-08-17T15:02:29.353Z,15.70
2022-08-17T15:05:01.866Z,16.70
2022-08-17T15:07:30.097Z,18.40
2022-08-17T15:10:01.384Z,17.08
2022-08-17T15:12:33.107Z,16.50
2022-08-17T15:15:05.508Z,17.40
2022-08-17T15:17:55.072Z,17.27
2022-08-17T15:20:27.859Z,16.65
2022-08-17T15:22:59.231Z,16.60
2022-08-17T15:25:29.766Z,17.88
2022-08-17T15:27:58.426Z,18.42
2022-08-17T15:30:26.613Z,15.07
2022-08-17T15:32:58.161Z,18.02
2022-08-17T15:35:29.330Z,15.40
2022-08-17T15:38:10.684Z,15.82
2022-08-17T15:40:43.325Z,16.63
2022-08-17T15:43:24.844Z,15.80
2022-08-17T15:46:11.985Z,14.38
2022-08-17T15:48:42.190Z,16.02
2022-08-17T15:51:16.364Z,15.88
2022-08-17T15:53:47.469Z,22.40
2022-08-17T15:56:15.413Z,21.67
2022-08-17T15:58:45.047Z,22.08
2022-08-17T16:01:15.013Z,24.58
2022-08-17T16:04:04.996Z,24.50
2022-08-17T16:06:34.630Z,24.65
2022-08-17T16:09:01.992Z,22.42
2022-08-17T16:11:29.001Z,24.90
2022-08-17T16:13:57.951Z,24.58
2022-08-17T16:16:28.938Z,23.92
2022-08-17T16:18:58.845Z,22.95
2022-08-17T16:21:26.766Z,26.52
2022-08-17T16:24:06.456Z,27.88
2022-08-17T16:26:40.488Z,26.33
2022-08-17T16:29:11.007Z,22.63
2022-08-17T16:31:40.933Z,22.48
2022-08-17T16:34:17.092Z,27.88
2022-08-17T16:36:54.547Z,25.38
2022-08-17T16:39:27.282Z,25.38
2022-08-17T16:41:55.992Z,28.98
2022-08-17T16:44:23.091Z,29.48
2022-08-17T16:46:50.490Z,28.63
2022-08-17T16:49:29.676Z,32.03
2022-08-17T16:52:10.452Z,28.42
2022-08-17T16:54:43.396Z,28.58
2022-08-17T16:57:34.673Z,24.73
2022-08-17T17:00:01.667Z,24.20
2022-08-17T17:02:30.461Z,26.25
2022-08-17T17:05:51.391Z,21.02
2022-08-17T17:08:46.728Z,22.52
2022-08-17T17:11:33.723Z,26.75
2022-08-17T17:14:09.475Z,26.33
2022-08-17T17:20:30.669Z,31.17
2022-08-17T17:23:30.756Z,27.95
2022-08-17T17:26:09.589Z,29.80
2022-08-17T17:29:02.355Z,31.13
2022-08-17T17:34:10.646Z,32.90
2022-08-17T17:36:40.512Z,31.70
2022-08-17T17:39:34.989Z,32.08
2022-08-17T17:42:09.775Z,35.42
2022-08-17T17:44:44.704Z,34.72
2022-08-17T17:47:15.303Z,36.05
2022-08-17T17:49:45.144Z,35.78
2022-08-17T17:52:37.884Z,34.53
2022-08-17T17:55:22.044Z,37.10
2022-08-17T17:58:05.368Z,32.33
2022-08-17T18:01:11.216Z,33.50
2022-08-17T18:04:21.370Z,30.65
2022-08-17T18:07:10.000Z,31.55
2022-08-17T18:10:31.656Z,31.38
2022-08-17T18:13:02.970Z,26.23
2022-08-17T18:15:31.424Z,26.40
2022-08-17T18:18:19.765Z,28.73
2022-08-17T18:20:56.188Z,29.73
2022-08-17T18:23:27.891Z,27.08
2022-08-17T18:25:58.646Z,28.38
2022-08-17T18:28:31.046Z,26.50
2022-08-17T18:33:50.023Z,30.77
2022-08-17T18:36:39.898Z,30.80
2022-08-17T18:39:18.076Z,29.25
2022-08-17T18:41:57.070Z,31.15
2022-08-17T18:44:42.038Z,30.10
2022-08-17T18:47:20.876Z,29.60
2022-08-17T18:49:58.183Z,29.13
2022-08-17T18:52:32.159Z,28.58
2022-08-17T18:55:17.563Z,30.42
2022-08-17T18:57:50.722Z,29.30
2022-08-17T19:00:29.892Z,32.00
2022-08-17T19:03:02.242Z,30.83
2022-08-17T19:05:42.802Z,31.73
2022-08-17T19:08:19.242Z,31.08
2022-08-17T19:10:51.844Z,32.30
2022-08-17T19:13:35.933Z,29.25
2022-08-17T19:16:13.990Z,32.13
2022-08-17T19:18:52.724Z,31.02
2022-08-17T19:21:27.313Z,30.83
2022-08-17T19:23:58.778Z,31.02
2022-08-17T19:26:51.124Z,28.77
2022-08-17T19:29:50.611Z,30.98
2022-08-17T19:32:22.957Z,34.67
2022-08-17T19:37:58.778Z,33.22
2022-08-17T19:40:52.959Z,34.70
2022-08-17T19:50:23.684Z,36.53
2022-08-17T19:53:21.553Z,35.05
2022-08-17T19:56:03.012Z,33.88
2022-08-17T19:58:59.318Z,33.25
2022-08-17T20:01:48.500Z,33.17
2022-08-17T20:07:55.501Z,33.08
2022-08-17T20:10:56.471Z,34.25
2022-08-17T20:13:43.614Z,34.38
2022-08-17T20:16:14.394Z,31.50
2022-08-17T20:18:52.804Z,28.98
2022-08-17T20:21:31.075Z,28.60
2022-08-17T20:24:21.701Z,38.58
2022-08-17T20:27:35.480Z,38.60
2022-08-17T20:30:11.834Z,38.05
2022-08-17T20:33:24.055Z,41.05
2022-08-17T20:36:06.685Z,42.55
2022-08-17T20:42:22.510Z,51.13
2022-08-17T20:45:02.884Z,55.63
2022-08-17T20:48:15.241Z,56.22
2022-08-17T20:50:41.550Z,62.13
2022-08-17T20:56:00.372Z,74.07
2022-08-17T20:58:30.717Z,70.80
2022-08-17T21:01:20.276Z,75.60
2022-08-17T21:03:51.893Z,77.22
2022-08-17T21:06:21.697Z,77.20
2022-08-17T21:08:57.885Z,78.45
2022-08-17T21:11:57.288Z,79.03
2022-08-17T21:14:52.011Z,80.40
2022-08-17T21:20:22.185Z,75.63
2022-08-17T21:23:23.585Z,78.50
2022-08-17T21:26:13.307Z,82.30
2022-08-17T21:29:01.430Z,78.30
2022-08-17T21:31:49.705Z,94.60
2022-08-17T21:34:16.671Z,105.70
2022-08-17T21:36:48.435Z,103.22
2022-08-17T21:39:23.314Z,99.22
2022-08-17T21:41:59.836Z,102.70
2022-08-17T21:44:37.033Z,116.57
2022-08-17T21:47:26.469Z,108.93
2022-08-17T21:50:16.471Z,102.93
2022-08-17T21:52:44.854Z,108.15
2022-08-17T21:55:30.162Z,109.63
2022-08-17T21:58:13.708Z,105.22
2022-08-17T22:00:44.660Z,105.45
2022-08-17T22:03:25.941Z,99.78
2022-08-17T22:05:53.129Z,93.70
2022-08-17T22:08:26.000Z,96.05
2022-08-17T22:11:01.130Z,95.15
2022-08-17T22:13:29.394Z,100.38
2022-08-17T22:16:29.275Z,98.75
2022-08-17T22:18:59.026Z,94.78
2022-08-17T22:21:26.693Z,100.20
2022-08-17T22:24:18.818Z,99.30
2022-08-17T22:27:00.874Z,104.45
2022-08-17T22:30:13.834Z,107.15
2022-08-17T22:32:44.707Z,108.30
2022-08-17T22:35:47.518Z,112.95
2022-08-17T22:38:19.123Z,112.43
2022-08-17T22:40:49.803Z,103.38
2022-08-17T22:43:44.740Z,111.85
2022-08-17T22:46:13.147Z,108.30
2022-08-17T22:48:50.830Z,109.05
2022-08-17T22:51:23.661Z,108.45
2022-08-17T22:54:16.209Z,111.03
2022-08-17T22:57:32.131Z,109.05
2022-08-17T23:00:00.667Z,112.70
2022-08-17T23:02:33.958Z,111.22
2022-08-17T23:05:12.963Z,107.22
2022-08-17T23:07:42.504Z,106.30
2022-08-17T23:10:11.534Z,107.38
2022-08-17T23:12:40.548Z,106.85
2022-08-17T23:15:16.040Z,98.13
2022-08-17T23:17:45.265Z,98.65
2022-08-17T23:20:16.174Z,99.32
2022-08-17T23:22:52.762Z,102.72
2022-08-17T23:25:32.368Z,102.07
2022-08-17T23:28:01.687Z,101.80
2022-08-17T23:30:34.959Z,106.25
2022-08-17T23:33:07.009Z,110.13
2022-08-17T23:35:40.256Z,111.38
2022-08-17T23:38:10.048Z,113.38
2022-08-17T23:40:39.361Z,126.22
2022-08-17T23:43:25.526Z,124.03
2022-08-17T23:45:57.557Z,120.85
2022-08-17T23:48:35.956Z,128.02
2022-08-17T23:51:09.813Z,122.78
2022-08-17T23:53:41.869Z,127.72
2022-08-17T23:56:15.207Z,128.63
2022-08-17T23:58:44.759Z,133.32
